createdAt,value
2023-04-25T00:00:17.022Z,8.30
2023-04-25T00:01:17.007Z,8.28
2023-04-25T00:02:17.049Z,8.20
2023-04-25T00:03:17.084Z,8.17
2023-04-25T00:04:17.321Z,8.21
2023-04-25T00:05:17.044Z,8.25
2023-04-25T00:06:16.941Z,8.26
2023-04-25T00:07:16.919Z,8.26
2023-04-25T00:08:16.890Z,8.26
2023-04-25T00:09:16.886Z,8.21
2023-04-25T00:10:16.890Z,8.25
2023-04-25T00:11:16.854Z,8.25
2023-04-25T00:12:16.842Z,8.26
2023-04-25T00:13:16.833Z,8.26
2023-04-25T00:14:16.817Z,8.26
2023-04-25T00:15:15.429Z,8.29
2023-04-25T00:16:16.838Z,8.29
2023-04-25T00:17:16.777Z,8.26
2023-04-25T00:18:16.766Z,8.25
2023-04-25T00:19:16.758Z,8.21
2023-04-25T00:20:16.762Z,8.15
2023-04-25T00:21:16.725Z,8.17
2023-04-25T00:22:16.716Z,8.18
2023-04-25T00:23:15.383Z,8.12
2023-04-25T00:24:16.694Z,8.18
2023-04-25T00:25:16.694Z,8.22
2023-04-25T00:26:16.653Z,8.28
2023-04-25T00:27:16.641Z,8.29
2023-04-25T00:28:16.637Z,8.29
2023-04-25T00:29:16.631Z,8.30
2023-04-25T00:30:16.679Z,8.29
2023-04-25T00:31:15.696Z,8.22
2023-04-25T00:32:16.570Z,8.28
2023-04-25T00:33:16.558Z,8.22
2023-04-25T00:34:16.548Z,8.25
2023-04-25T00:35:16.555Z,8.20
2023-04-25T00:36:16.534Z,8.17
2023-04-25T00:37:16.506Z,8.18
2023-04-25T00:38:16.496Z,8.18
2023-04-25T00:39:16.478Z,8.15
2023-04-25T00:40:16.491Z,8.14
2023-04-25T00:41:16.466Z,8.14
2023-04-25T00:42:16.448Z,8.02
2023-04-25T00:43:16.425Z,8.00
2023-04-25T00:44:16.415Z,7.99
2023-04-25T00:45:16.421Z,7.99
2023-04-25T00:46:16.500Z,7.94
2023-04-25T00:47:16.360Z,7.90
2023-04-25T00:48:16.364Z,7.93
2023-04-25T00:49:16.337Z,7.87
2023-04-25T00:50:16.354Z,7.84
2023-04-25T00:51:16.328Z,7.87
2023-04-25T00:52:16.313Z,7.89
2023-04-25T00:53:16.289Z,7.82
2023-04-25T00:54:16.290Z,7.85
2023-04-25T00:55:16.271Z,7.77
2023-04-25T00:56:16.259Z,7.74
2023-04-25T00:57:16.230Z,7.82
2023-04-25T00:58:16.230Z,7.79
2023-04-25T00:59:16.222Z,7.78
2023-04-25T01:00:16.203Z,7.72
2023-04-25T01:01:16.246Z,7.67
2023-04-25T01:02:16.228Z,7.69
2023-04-25T01:03:16.313Z,7.63
2023-04-25T01:04:16.355Z,7.60
2023-04-25T01:05:16.124Z,7.62
2023-04-25T01:06:16.125Z,7.60
2023-04-25T01:07:16.094Z,7.49
2023-04-25T01:08:16.086Z,7.47
2023-04-25T01:09:16.066Z,7.44
2023-04-25T01:10:16.056Z,7.41
2023-04-25T01:11:16.043Z,7.44
2023-04-25T01:12:16.036Z,7.44
2023-04-25T01:13:16.007Z,7.38
2023-04-25T01:14:16.031Z,7.34
2023-04-25T01:15:16.001Z,7.35
2023-04-25T01:16:16.019Z,7.32
2023-04-25T01:17:15.966Z,7.37
2023-04-25T01:18:15.946Z,7.37
2023-04-25T01:19:14.963Z,7.40
2023-04-25T01:20:14.962Z,7.38
2023-04-25T01:21:14.967Z,7.27
2023-04-25T01:22:15.903Z,7.23
2023-04-25T01:23:15.877Z,7.23
2023-04-25T01:24:15.871Z,7.29
2023-04-25T01:25:15.856Z,7.24
2023-04-25T01:26:15.852Z,7.27
2023-04-25T01:27:14.596Z,7.31
2023-04-25T01:28:15.814Z,7.29
2023-04-25T01:29:15.795Z,7.26
2023-04-25T01:30:15.790Z,7.31
2023-04-25T01:31:15.788Z,7.31
2023-04-25T01:32:15.805Z,7.26
2023-04-25T01:33:15.748Z,7.26
2023-04-25T01:34:15.737Z,7.23
2023-04-25T01:35:15.030Z,7.22
2023-04-25T01:36:15.721Z,7.23
2023-04-25T01:37:15.690Z,7.17
2023-04-25T01:38:15.688Z,7.20
2023-04-25T01:39:15.685Z,7.19
2023-04-25T01:40:15.652Z,7.17
2023-04-25T01:41:15.675Z,7.16
2023-04-25T01:42:15.627Z,7.09
2023-04-25T01:43:14.917Z,7.04
2023-04-25T01:44:15.612Z,7.05
2023-04-25T01:45:15.596Z,7.04
2023-04-25T01:46:15.643Z,7.07
2023-04-25T01:47:15.570Z,7.04
2023-04-25T01:48:15.558Z,7.01
2023-04-25T01:49:15.528Z,7.02
2023-04-25T01:50:15.541Z,7.07
2023-04-25T01:51:15.514Z,7.05
2023-04-25T01:52:15.495Z,7.05
2023-04-25T01:53:15.500Z,7.08
2023-04-25T01:54:15.482Z,7.05
2023-04-25T01:55:15.455Z,7.01
2023-04-25T01:56:15.449Z,6.99
2023-04-25T01:57:15.427Z,7.04
2023-04-25T01:58:15.424Z,6.99
2023-04-25T01:59:15.403Z,7.01
2023-04-25T02:00:15.383Z,6.99
2023-04-25T02:01:15.428Z,6.99
2023-04-25T02:02:15.457Z,7.05
2023-04-25T02:03:15.479Z,7.08
2023-04-25T02:04:15.456Z,7.08
2023-04-25T02:05:15.323Z,7.12
2023-04-25T02:06:15.321Z,7.12
2023-04-25T02:07:15.286Z,7.12
2023-04-25T02:08:15.283Z,7.07
2023-04-25T02:09:15.262Z,7.08
2023-04-25T02:10:15.251Z,7.08
2023-04-25T02:11:15.251Z,7.12
2023-04-25T02:12:15.229Z,7.09
2023-04-25T02:13:15.213Z,7.05
2023-04-25T02:14:15.203Z,7.08
2023-04-25T02:15:15.193Z,7.01
2023-04-25T02:16:15.278Z,6.98
2023-04-25T02:17:15.204Z,6.95
2023-04-25T02:18:15.208Z,6.91
2023-04-25T02:19:15.152Z,6.94
2023-04-25T02:20:15.117Z,6.98
2023-04-25T02:21:15.115Z,6.99
2023-04-25T02:22:15.110Z,6.98
2023-04-25T02:23:13.635Z,6.95
2023-04-25T02:24:15.085Z,6.90
2023-04-25T02:25:15.063Z,6.86
2023-04-25T02:26:15.055Z,6.80
2023-04-25T02:27:15.050Z,6.79
2023-04-25T02:28:15.012Z,6.73
2023-04-25T02:29:15.019Z,6.72
2023-04-25T02:30:14.997Z,6.73
2023-04-25T02:31:13.599Z,6.76
2023-04-25T02:32:14.962Z,6.76
2023-04-25T02:33:14.952Z,6.73
2023-04-25T02:34:14.931Z,6.71
2023-04-25T02:35:14.938Z,6.66
2023-04-25T02:36:14.923Z,6.62
2023-04-25T02:37:14.911Z,6.62
2023-04-25T02:38:14.903Z,6.61
2023-04-25T02:39:13.874Z,6.62
2023-04-25T02:40:14.885Z,6.62
2023-04-25T02:41:14.855Z,6.62
2023-04-25T02:42:14.837Z,6.61
2023-04-25T02:43:14.852Z,6.59
2023-04-25T02:44:14.818Z,6.59
2023-04-25T02:45:13.520Z,6.58
2023-04-25T02:46:15.587Z,6.56
2023-04-25T02:47:13.555Z,6.58
2023-04-25T02:48:14.807Z,6.59
2023-04-25T02:49:14.734Z,6.59
2023-04-25T02:50:14.748Z,6.62
2023-04-25T02:51:14.725Z,6.62
2023-04-25T02:52:14.707Z,6.63
2023-04-25T02:53:14.684Z,6.65
2023-04-25T02:54:14.683Z,6.65
2023-04-25T02:55:13.712Z,6.66
2023-04-25T02:56:14.661Z,6.68
2023-04-25T02:57:14.634Z,6.69
2023-04-25T02:58:14.635Z,6.72
2023-04-25T02:59:14.614Z,6.76
2023-04-25T03:00:14.595Z,6.76
2023-04-25T03:01:14.632Z,6.79
2023-04-25T03:02:14.617Z,6.83
2023-04-25T03:03:13.155Z,6.86
2023-04-25T03:04:14.568Z,6.90
2023-04-25T03:05:14.520Z,6.90
2023-04-25T03:06:14.517Z,6.90
2023-04-25T03:07:14.485Z,6.90
2023-04-25T03:08:14.514Z,6.91
2023-04-25T03:09:14.486Z,6.94
2023-04-25T03:10:14.458Z,6.91
2023-04-25T03:11:14.466Z,6.89
2023-04-25T03:12:14.458Z,6.84
2023-04-25T03:13:14.433Z,6.77
2023-04-25T03:14:14.402Z,6.71
2023-04-25T03:15:14.397Z,6.59
2023-04-25T03:16:14.403Z,6.61
2023-04-25T03:17:14.364Z,6.62
2023-04-25T03:18:14.343Z,6.63
2023-04-25T03:19:13.133Z,6.59
2023-04-25T03:20:14.327Z,6.58
2023-04-25T03:21:14.311Z,6.61
2023-04-25T03:22:14.317Z,6.61
2023-04-25T03:23:14.282Z,6.63
2023-04-25T03:24:14.284Z,6.65
2023-04-25T03:25:14.260Z,6.61
2023-04-25T03:26:14.240Z,6.56
2023-04-25T03:27:14.231Z,6.54
2023-04-25T03:28:14.222Z,6.54
2023-04-25T03:29:14.205Z,6.56
2023-04-25T03:30:12.779Z,6.59
2023-04-25T03:31:14.169Z,6.61
2023-04-25T03:32:14.354Z,6.63
2023-04-25T03:33:14.144Z,6.61
2023-04-25T03:34:14.140Z,6.54
2023-04-25T03:35:12.674Z,6.54
2023-04-25T03:36:14.117Z,6.56
2023-04-25T03:37:14.141Z,6.59
2023-04-25T03:38:14.082Z,6.59
2023-04-25T03:39:14.076Z,6.65
2023-04-25T03:40:14.057Z,6.65
2023-04-25T03:41:13.101Z,6.63
2023-04-25T03:42:13.092Z,6.68
2023-04-25T03:43:13.110Z,6.68
2023-04-25T03:44:14.005Z,6.65
2023-04-25T03:45:13.981Z,6.65
2023-04-25T03:46:14.025Z,6.61
2023-04-25T03:47:13.974Z,6.61
2023-04-25T03:48:13.951Z,6.61
2023-04-25T03:49:13.932Z,6.61
2023-04-25T03:50:13.937Z,6.63
2023-04-25T03:51:12.449Z,6.62
2023-04-25T03:52:13.913Z,6.58
2023-04-25T03:53:13.155Z,6.59
2023-04-25T03:54:13.884Z,6.61
2023-04-25T03:55:13.861Z,6.62
2023-04-25T03:56:13.849Z,6.66
2023-04-25T03:57:13.855Z,6.63
2023-04-25T03:58:13.824Z,6.63
2023-04-25T03:59:12.800Z,6.65
2023-04-25T04:00:13.804Z,6.63
2023-04-25T04:01:13.767Z,6.61
2023-04-25T04:02:12.859Z,6.63
2023-04-25T04:03:13.886Z,6.63
2023-04-25T04:04:14.196Z,6.65
2023-04-25T04:05:14.002Z,6.65
2023-04-25T04:06:13.712Z,6.68
2023-04-25T04:07:12.974Z,6.72
2023-04-25T04:08:13.683Z,6.73
2023-04-25T04:09:13.679Z,6.79
2023-04-25T04:10:13.697Z,6.80
2023-04-25T04:11:13.642Z,6.79
2023-04-25T04:12:13.654Z,6.80
2023-04-25T04:13:13.629Z,6.84
2023-04-25T04:14:13.592Z,6.87
2023-04-25T04:15:13.594Z,6.89
2023-04-25T04:16:13.612Z,6.90
2023-04-25T04:17:13.575Z,6.94
2023-04-25T04:18:13.548Z,6.94
2023-04-25T04:19:13.181Z,6.95
2023-04-25T04:20:13.539Z,6.95
2023-04-25T04:21:13.519Z,6.94
2023-04-25T04:22:13.498Z,6.91
2023-04-25T04:23:12.147Z,6.90
2023-04-25T04:24:13.473Z,6.87
2023-04-25T04:25:13.457Z,6.91
2023-04-25T04:26:13.542Z,6.91
2023-04-25T04:27:13.423Z,6.90
2023-04-25T04:28:13.415Z,6.87
2023-04-25T04:29:13.393Z,6.86
2023-04-25T04:30:13.396Z,6.83
2023-04-25T04:31:13.408Z,6.83
2023-04-25T04:32:13.376Z,6.84
2023-04-25T04:33:13.385Z,6.89
2023-04-25T04:34:13.329Z,6.90
2023-04-25T04:35:13.313Z,6.90
2023-04-25T04:36:13.302Z,6.94
2023-04-25T04:37:13.292Z,6.97
2023-04-25T04:38:13.271Z,6.98
2023-04-25T04:39:13.261Z,6.99
2023-04-25T04:40:13.259Z,7.01
2023-04-25T04:41:13.236Z,7.01
2023-04-25T04:42:13.240Z,7.04
2023-04-25T04:43:13.241Z,7.05
2023-04-25T04:44:13.203Z,7.05
2023-04-25T04:45:13.212Z,7.02
2023-04-25T04:46:13.233Z,7.07
2023-04-25T04:47:13.157Z,7.08
2023-04-25T04:48:13.183Z,7.05
2023-04-25T04:49:13.133Z,7.04
2023-04-25T04:50:13.130Z,7.07
2023-04-25T04:51:13.096Z,7.07
2023-04-25T04:52:13.121Z,7.05
2023-04-25T04:53:11.897Z,7.12
2023-04-25T04:54:11.888Z,7.15
2023-04-25T04:55:11.906Z,7.16
2023-04-25T04:56:13.048Z,7.17
2023-04-25T04:57:11.897Z,7.20
2023-04-25T04:58:13.005Z,7.20
2023-04-25T04:59:11.794Z,7.20
2023-04-25T05:00:12.981Z,7.20
2023-04-25T05:01:13.056Z,7.19
2023-04-25T05:02:11.945Z,7.16
2023-04-25T05:03:13.077Z,7.12
2023-04-25T05:04:13.046Z,7.12
2023-04-25T05:05:12.912Z,7.15
2023-04-25T05:06:12.898Z,7.16
2023-04-25T05:07:12.921Z,7.17
2023-04-25T05:08:12.871Z,7.16
2023-04-25T05:09:12.854Z,7.19
2023-04-25T05:10:11.467Z,7.19
2023-04-25T05:11:11.586Z,7.20
2023-04-25T05:12:12.836Z,7.15
2023-04-25T05:13:12.819Z,7.07
2023-04-25T05:14:12.817Z,7.09
2023-04-25T05:15:12.813Z,7.08
2023-04-25T05:16:12.863Z,7.16
2023-04-25T05:17:12.766Z,7.17
2023-04-25T05:18:12.767Z,7.17
2023-04-25T05:19:12.722Z,7.17
2023-04-25T05:20:12.713Z,7.22
2023-04-25T05:21:12.700Z,7.20
2023-04-25T05:22:12.693Z,7.22
2023-04-25T05:23:12.669Z,7.22
2023-04-25T05:24:12.660Z,7.29
2023-04-25T05:25:12.661Z,7.38
2023-04-25T05:26:12.621Z,7.41
2023-04-25T05:27:12.639Z,7.42
2023-04-25T05:28:12.591Z,7.49
2023-04-25T05:29:12.591Z,7.55
2023-04-25T05:30:12.578Z,7.59
2023-04-25T05:31:12.572Z,7.60
2023-04-25T05:32:12.610Z,7.66
2023-04-25T05:33:12.586Z,7.66
2023-04-25T05:34:12.527Z,7.66
2023-04-25T05:35:12.571Z,7.69
2023-04-25T05:36:12.505Z,7.67
2023-04-25T05:37:12.479Z,7.74
2023-04-25T05:38:12.472Z,7.74
2023-04-25T05:39:12.456Z,7.71
2023-04-25T05:40:12.433Z,7.62
2023-04-25T05:41:12.419Z,7.55
2023-04-25T05:42:10.963Z,7.53
2023-04-25T05:43:12.384Z,7.49
2023-04-25T05:44:11.939Z,7.53
2023-04-25T05:45:12.383Z,7.58
2023-04-25T05:46:12.413Z,7.60
2023-04-25T05:47:12.354Z,7.67
2023-04-25T05:48:12.354Z,7.71
2023-04-25T05:49:12.318Z,7.72
2023-04-25T05:50:12.325Z,7.75
2023-04-25T05:51:12.281Z,7.79
2023-04-25T05:52:12.297Z,7.81
2023-04-25T05:53:12.267Z,7.81
2023-04-25T05:54:12.242Z,7.82
2023-04-25T05:55:11.741Z,7.82
2023-04-25T05:56:12.222Z,7.84
2023-04-25T05:57:12.212Z,7.82
2023-04-25T05:58:12.190Z,7.87
2023-04-25T05:59:12.164Z,7.87
2023-04-25T06:00:12.199Z,7.90
2023-04-25T06:01:12.144Z,7.92
2023-04-25T06:02:12.224Z,7.93
2023-04-25T06:03:12.282Z,7.97
2023-04-25T06:04:12.370Z,8.00
2023-04-25T06:05:11.565Z,8.02
2023-04-25T06:06:10.811Z,8.02
2023-04-25T06:07:10.604Z,8.03
2023-04-25T06:08:11.126Z,8.02
2023-04-25T06:09:14.291Z,8.00
2023-04-25T06:10:12.057Z,8.00
2023-04-25T06:11:11.517Z,7.99
2023-04-25T06:12:12.002Z,8.02
2023-04-25T06:13:12.008Z,8.00
2023-04-25T06:14:11.204Z,8.03
2023-04-25T06:15:24.249Z,8.02
2023-04-25T06:16:12.970Z,8.03
2023-04-25T06:17:11.970Z,7.97
2023-04-25T06:18:11.953Z,7.99
2023-04-25T06:19:11.903Z,7.97
2023-04-25T06:20:11.905Z,7.99
2023-04-25T06:21:11.903Z,7.94
2023-04-25T06:22:11.130Z,7.94
2023-04-25T06:23:10.415Z,7.90
2023-04-25T06:24:11.841Z,7.92
2023-04-25T06:25:11.834Z,7.94
2023-04-25T06:26:11.813Z,7.89
2023-04-25T06:27:11.801Z,7.85
2023-04-25T06:28:11.862Z,7.82
2023-04-25T06:29:11.789Z,7.82
2023-04-25T06:30:10.607Z,7.81
2023-04-25T06:31:11.785Z,7.74
2023-04-25T06:32:11.739Z,7.77
2023-04-25T06:33:11.771Z,7.82
2023-04-25T06:34:11.726Z,7.85
2023-04-25T06:35:11.690Z,7.89
2023-04-25T06:36:11.698Z,7.90
2023-04-25T06:37:11.685Z,7.90
2023-04-25T06:38:11.748Z,7.90
2023-04-25T06:39:11.638Z,7.93
2023-04-25T06:40:11.637Z,7.94
2023-04-25T06:41:11.612Z,7.93
2023-04-25T06:42:11.613Z,7.94
2023-04-25T06:43:11.587Z,7.97
2023-04-25T06:44:11.603Z,8.00
2023-04-25T06:45:11.554Z,7.97
2023-04-25T06:46:10.095Z,8.00
2023-04-25T06:47:11.558Z,8.04
2023-04-25T06:48:11.521Z,8.10
2023-04-25T06:49:11.513Z,8.10
2023-04-25T06:50:11.502Z,8.11
2023-04-25T06:51:11.484Z,8.12
2023-04-25T06:52:11.472Z,8.15
2023-04-25T06:53:11.470Z,8.20
2023-04-25T06:54:11.452Z,8.26
2023-04-25T06:55:11.340Z,8.29
2023-04-25T06:56:11.412Z,8.32
2023-04-25T06:57:11.435Z,8.30
2023-04-25T06:58:11.396Z,8.32
2023-04-25T06:59:11.369Z,8.35
2023-04-25T07:00:11.389Z,8.39
2023-04-25T07:01:11.401Z,8.44
2023-04-25T07:02:11.550Z,8.47
2023-04-25T07:03:11.449Z,8.48
2023-04-25T07:04:11.443Z,8.53
2023-04-25T07:05:11.308Z,8.55
2023-04-25T07:06:11.293Z,8.57
2023-04-25T07:07:11.268Z,8.62
2023-04-25T07:08:11.238Z,8.65
2023-04-25T07:09:11.243Z,8.66
2023-04-25T07:10:11.259Z,8.72
2023-04-25T07:11:11.222Z,8.79
2023-04-25T07:12:11.217Z,8.76
2023-04-25T07:13:11.189Z,8.87
2023-04-25T07:14:10.017Z,8.87
2023-04-25T07:15:10.013Z,8.75
2023-04-25T07:16:10.044Z,8.76
2023-04-25T07:17:11.153Z,8.88
2023-04-25T07:18:09.717Z,8.99
2023-04-25T07:19:10.012Z,9.12
2023-04-25T07:20:11.107Z,9.21
2023-04-25T07:21:10.023Z,9.31
2023-04-25T07:22:11.083Z,9.38
2023-04-25T07:23:11.073Z,9.42
2023-04-25T07:24:11.040Z,9.43
2023-04-25T07:25:11.021Z,9.53
2023-04-25T07:26:09.567Z,9.63
2023-04-25T07:27:11.010Z,9.73
2023-04-25T07:28:10.984Z,9.89
2023-04-25T07:29:10.966Z,9.83
2023-04-25T07:30:10.970Z,10.03
2023-04-25T07:31:10.946Z,10.32
2023-04-25T07:32:10.948Z,10.43
2023-04-25T07:33:10.963Z,10.58
2023-04-25T07:34:09.771Z,11.24
2023-04-25T07:35:10.898Z,12.13
2023-04-25T07:36:10.872Z,12.01
2023-04-25T07:37:10.865Z,11.50
2023-04-25T07:38:09.892Z,11.17
2023-04-25T07:39:10.857Z,10.91
2023-04-25T07:40:10.830Z,10.65
2023-04-25T07:41:10.803Z,10.46
2023-04-25T07:42:10.019Z,10.15
2023-04-25T07:43:10.794Z,10.09
2023-04-25T07:44:09.808Z,10.04
2023-04-25T07:45:10.766Z,9.99
2023-04-25T07:46:10.799Z,9.88
2023-04-25T07:47:10.748Z,9.88
2023-04-25T07:48:10.706Z,9.94
2023-04-25T07:49:10.717Z,9.99
2023-04-25T07:50:10.678Z,10.01
2023-04-25T07:51:10.670Z,10.14
2023-04-25T07:52:10.669Z,10.15
2023-04-25T07:53:10.640Z,10.12
2023-04-25T07:54:10.624Z,10.10
2023-04-25T07:55:10.621Z,10.07
2023-04-25T07:56:10.606Z,10.01
2023-04-25T07:57:10.596Z,9.97
2023-04-25T07:58:09.133Z,10.00
2023-04-25T07:59:10.569Z,10.12
2023-04-25T08:00:10.576Z,9.82
2023-04-25T08:01:10.552Z,9.86
2023-04-25T08:02:10.596Z,9.91
2023-04-25T08:03:11.051Z,9.94
2023-04-25T08:04:10.569Z,10.03
2023-04-25T08:05:10.740Z,9.91
2023-04-25T08:06:09.500Z,9.97
2023-04-25T08:07:10.463Z,9.83
2023-04-25T08:08:10.440Z,9.76
2023-04-25T08:09:10.475Z,9.66
2023-04-25T08:10:10.430Z,9.71
2023-04-25T08:11:10.397Z,9.75
2023-04-25T08:12:10.400Z,9.70
2023-04-25T08:13:10.362Z,9.68
2023-04-25T08:14:10.362Z,9.67
2023-04-25T08:15:10.354Z,9.61
2023-04-25T08:16:10.380Z,9.61
2023-04-25T08:17:10.326Z,9.67
2023-04-25T08:18:10.359Z,9.79
2023-04-25T08:19:10.286Z,9.88
2023-04-25T08:20:10.280Z,9.86
2023-04-25T08:21:10.268Z,9.88
2023-04-25T08:22:10.268Z,10.01
2023-04-25T08:23:10.246Z,10.09
2023-04-25T08:24:10.221Z,10.15
2023-04-25T08:25:09.262Z,10.01
2023-04-25T08:26:10.202Z,10.07
2023-04-25T08:27:10.231Z,10.18
2023-04-25T08:28:09.335Z,10.28
2023-04-25T08:29:10.185Z,10.40
2023-04-25T08:30:09.327Z,10.51
2023-04-25T08:31:09.132Z,10.40
2023-04-25T08:32:09.293Z,10.56
2023-04-25T08:33:10.149Z,10.68
2023-04-25T08:34:10.100Z,10.70
2023-04-25T08:35:10.073Z,10.86
2023-04-25T08:36:08.939Z,10.99
2023-04-25T08:37:09.311Z,11.02
2023-04-25T08:38:09.141Z,10.80
2023-04-25T08:39:09.303Z,10.88
2023-04-25T08:40:10.033Z,10.98
2023-04-25T08:41:10.185Z,11.10
2023-04-25T08:42:09.969Z,10.81
2023-04-25T08:43:09.979Z,10.84
2023-04-25T08:44:09.945Z,10.76
2023-04-25T08:45:09.320Z,10.66
2023-04-25T08:46:09.923Z,10.63
2023-04-25T08:47:10.069Z,10.52
2023-04-25T08:48:09.929Z,10.47
2023-04-25T08:49:09.887Z,10.39
2023-04-25T08:50:09.875Z,10.36
2023-04-25T08:52:09.887Z,10.15
2023-04-25T08:53:09.113Z,10.01
2023-04-25T08:54:30.906Z,9.96
2023-04-25T08:55:10.807Z,9.93
2023-04-25T08:56:09.779Z,9.97
2023-04-25T08:57:09.913Z,10.04
2023-04-25T08:58:09.770Z,10.12
2023-04-25T08:59:09.738Z,10.06
2023-04-25T09:00:09.724Z,10.25
2023-04-25T09:01:09.732Z,10.43
2023-04-25T09:02:08.312Z,10.68
2023-04-25T09:03:09.966Z,10.88
2023-04-25T09:04:09.816Z,10.94
2023-04-25T09:05:09.664Z,11.01
2023-04-25T09:06:09.651Z,11.20
2023-04-25T09:07:09.635Z,11.17
2023-04-25T09:08:09.640Z,11.19
2023-04-25T09:09:08.614Z,11.44
2023-04-25T09:10:09.640Z,11.56
2023-04-25T09:11:09.585Z,11.39
2023-04-25T09:12:09.572Z,11.57
2023-04-25T09:13:09.590Z,11.71
2023-04-25T09:14:09.540Z,11.93
2023-04-25T09:15:09.536Z,11.83
2023-04-25T09:16:09.567Z,11.78
2023-04-25T09:17:09.555Z,11.59
2023-04-25T09:18:08.087Z,11.20
2023-04-25T09:19:09.473Z,11.14
2023-04-25T09:20:09.462Z,10.84
2023-04-25T09:21:13.569Z,10.52
2023-04-25T09:22:10.418Z,10.22
2023-04-25T09:23:09.432Z,9.99
2023-04-25T09:24:09.399Z,9.81
2023-04-25T09:25:09.378Z,9.64
2023-04-25T09:26:07.914Z,9.34
2023-04-25T09:27:09.353Z,9.10
2023-04-25T09:28:09.354Z,8.91
2023-04-25T09:29:09.337Z,8.75
2023-04-25T09:30:09.345Z,8.36
2023-04-25T09:31:09.315Z,8.20
2023-04-25T09:32:09.305Z,8.18
2023-04-25T09:33:09.313Z,8.15
2023-04-25T09:34:09.261Z,8.10
2023-04-25T09:35:09.271Z,8.03
2023-04-25T09:36:08.151Z,8.11
2023-04-25T09:37:09.234Z,8.15
2023-04-25T09:38:08.114Z,8.18
2023-04-25T09:39:08.119Z,8.22
2023-04-25T09:40:09.228Z,8.22
2023-04-25T09:41:07.802Z,8.29
2023-04-25T09:42:08.194Z,8.37
2023-04-25T09:43:09.159Z,8.42
2023-04-25T09:44:09.136Z,8.47
2023-04-25T09:45:09.113Z,8.48
2023-04-25T09:46:09.119Z,8.50
2023-04-25T09:47:09.107Z,8.29
2023-04-25T09:48:09.146Z,8.11
2023-04-25T09:49:07.694Z,8.15
2023-04-25T09:50:09.047Z,8.12
2023-04-25T09:51:09.032Z,8.12
2023-04-25T09:52:09.028Z,8.20
2023-04-25T09:53:09.003Z,8.32
2023-04-25T09:54:08.999Z,8.35
2023-04-25T09:55:08.991Z,8.48
2023-04-25T09:56:08.979Z,8.69
2023-04-25T09:57:08.958Z,8.90
2023-04-25T09:58:08.937Z,9.24
2023-04-25T09:59:08.001Z,9.56
2023-04-25T10:00:08.915Z,9.88
2023-04-25T10:01:08.930Z,10.19
2023-04-25T10:02:08.920Z,10.40
2023-04-25T10:03:08.929Z,10.56
2023-04-25T10:04:08.902Z,10.65
2023-04-25T10:05:08.891Z,10.80
2023-04-25T10:06:08.826Z,11.03
2023-04-25T10:07:08.827Z,11.10
2023-04-25T10:08:08.810Z,11.35
2023-04-25T10:09:08.791Z,11.34
2023-04-25T10:10:08.279Z,11.50
2023-04-25T10:11:08.773Z,11.56
2023-04-25T10:12:08.764Z,11.41
2023-04-25T10:13:08.729Z,11.38
2023-04-25T10:14:07.274Z,11.19
2023-04-25T10:15:08.715Z,11.20
2023-04-25T10:16:08.710Z,11.19
2023-04-25T10:17:08.696Z,10.96
2023-04-25T10:18:08.751Z,10.78
2023-04-25T10:19:08.673Z,10.71
2023-04-25T10:20:08.659Z,10.65
2023-04-25T10:21:07.187Z,10.80
2023-04-25T10:22:08.624Z,11.03
2023-04-25T10:23:08.587Z,11.13
2023-04-25T10:24:08.579Z,11.03
2023-04-25T10:25:08.607Z,11.09
2023-04-25T10:26:08.572Z,11.09
2023-04-25T10:27:08.546Z,11.27
2023-04-25T10:28:08.526Z,11.46
2023-04-25T10:29:07.383Z,11.59
2023-04-25T10:30:07.501Z,11.59
2023-04-25T10:31:08.577Z,11.49
2023-04-25T10:32:08.523Z,11.59
2023-04-25T10:33:08.468Z,11.62
2023-04-25T10:34:08.485Z,11.67
2023-04-25T10:35:08.475Z,11.62
2023-04-25T10:36:08.421Z,11.49
2023-04-25T10:37:06.954Z,11.57
2023-04-25T10:38:08.417Z,11.94
2023-04-25T10:39:08.450Z,12.34
2023-04-25T10:40:08.440Z,13.79
2023-04-25T10:41:08.356Z,14.88
2023-04-25T10:42:08.348Z,16.16
2023-04-25T10:43:08.351Z,16.70
2023-04-25T10:44:08.311Z,17.48
2023-04-25T10:45:06.895Z,17.53
2023-04-25T10:46:07.376Z,17.70
2023-04-25T10:47:08.318Z,16.77
2023-04-25T10:48:08.314Z,16.65
2023-04-25T10:49:07.430Z,17.22
2023-04-25T10:50:08.221Z,17.74
2023-04-25T10:51:08.247Z,18.29
2023-04-25T10:52:08.203Z,18.84
2023-04-25T10:53:07.423Z,19.38
2023-04-25T10:54:07.419Z,19.55
2023-04-25T10:55:08.159Z,19.51
2023-04-25T10:56:09.634Z,17.89
2023-04-25T10:57:07.422Z,16.25
2023-04-25T10:58:08.141Z,15.35
2023-04-25T10:59:08.132Z,14.93
2023-04-25T11:00:08.088Z,14.64
2023-04-25T11:01:07.397Z,16.11
2023-04-25T11:02:08.171Z,17.11
2023-04-25T11:03:08.262Z,17.11
2023-04-25T11:04:08.234Z,16.40
2023-04-25T11:05:08.030Z,15.92
2023-04-25T11:06:08.005Z,15.66
2023-04-25T11:07:08.525Z,15.72
2023-04-25T11:08:08.552Z,15.09
2023-04-25T11:09:07.283Z,14.53
2023-04-25T11:10:07.967Z,14.21
2023-04-25T11:11:07.954Z,14.42
2023-04-25T11:12:07.932Z,14.53
2023-04-25T11:13:07.938Z,14.31
2023-04-25T11:14:07.907Z,14.31
2023-04-25T11:15:07.892Z,14.91
2023-04-25T11:16:13.396Z,15.05
2023-04-25T11:17:08.915Z,14.61
2023-04-25T11:18:08.320Z,14.04
2023-04-25T11:19:07.838Z,13.71
2023-04-25T11:20:07.346Z,13.43
2023-04-25T11:21:07.816Z,13.30
2023-04-25T11:22:07.839Z,13.29
2023-04-25T11:23:07.799Z,14.10
2023-04-25T11:24:07.773Z,15.75
2023-04-25T11:25:07.776Z,16.78
2023-04-25T11:26:07.742Z,17.26
2023-04-25T11:27:07.738Z,17.32
2023-04-25T11:28:07.738Z,16.53
2023-04-25T11:29:07.698Z,16.16
2023-04-25T11:30:07.692Z,15.86
2023-04-25T11:31:07.724Z,15.54
2023-04-25T11:32:07.734Z,15.42
2023-04-25T11:33:06.225Z,15.52
2023-04-25T11:34:07.627Z,15.08
2023-04-25T11:35:07.619Z,14.80
2023-04-25T11:36:07.609Z,14.31
2023-04-25T11:37:07.630Z,13.17
2023-04-25T11:38:07.589Z,13.06
2023-04-25T11:39:07.571Z,12.92
2023-04-25T11:40:07.562Z,12.93
2023-04-25T11:41:07.541Z,12.89
2023-04-25T11:42:13.485Z,12.75
2023-04-25T11:43:08.602Z,12.64
2023-04-25T11:44:07.494Z,12.66
2023-04-25T11:45:07.485Z,12.67
2023-04-25T11:46:07.502Z,12.56
2023-04-25T11:47:07.452Z,12.51
2023-04-25T11:48:07.512Z,12.49
2023-04-25T11:49:05.985Z,12.44
2023-04-25T11:50:07.437Z,12.51
2023-04-25T11:51:07.382Z,12.44
2023-04-25T11:52:07.393Z,12.38
2023-04-25T11:53:07.377Z,12.31
2023-04-25T11:54:06.230Z,12.19
2023-04-25T11:55:08.997Z,12.19
2023-04-25T11:56:07.321Z,12.21
2023-04-25T11:57:05.866Z,12.24
2023-04-25T11:58:07.311Z,12.16
2023-04-25T11:59:06.644Z,12.20
2023-04-25T12:00:06.232Z,12.34
2023-04-25T12:01:07.284Z,12.54
2023-04-25T12:02:07.244Z,12.59
2023-04-25T12:03:07.303Z,12.64
2023-04-25T12:04:07.341Z,12.56
2023-04-25T12:05:21.509Z,12.56
2023-04-25T12:06:07.663Z,12.37
2023-04-25T12:07:06.244Z,12.09
2023-04-25T12:08:07.180Z,11.96
2023-04-25T12:09:07.147Z,11.85
2023-04-25T12:10:07.157Z,11.78
2023-04-25T12:11:07.119Z,11.80
2023-04-25T12:12:07.137Z,11.61
2023-04-25T12:13:07.108Z,11.70
2023-04-25T12:14:07.096Z,11.93
2023-04-25T12:15:07.078Z,12.75
2023-04-25T12:16:07.105Z,13.38
2023-04-25T12:17:07.046Z,13.73
2023-04-25T12:18:07.066Z,14.12
2023-04-25T12:19:07.016Z,14.14
2023-04-25T12:20:06.066Z,14.57
2023-04-25T12:21:06.076Z,15.31
2023-04-25T12:22:06.962Z,16.31
2023-04-25T12:23:06.974Z,16.53
2023-04-25T12:24:06.982Z,16.78
2023-04-25T12:25:06.935Z,17.33
2023-04-25T12:26:06.926Z,18.06
2023-04-25T12:27:06.934Z,18.12
2023-04-25T12:28:06.896Z,18.97
2023-04-25T12:29:06.867Z,19.02
2023-04-25T12:30:06.869Z,18.52
2023-04-25T12:31:06.919Z,18.50
2023-04-25T12:32:06.838Z,18.34
2023-04-25T12:33:06.893Z,17.33
2023-04-25T12:34:06.815Z,16.56
2023-04-25T12:35:06.804Z,15.92
2023-04-25T12:36:06.784Z,15.38
2023-04-25T12:37:05.310Z,15.12
2023-04-25T12:38:06.753Z,14.86
2023-04-25T12:39:06.744Z,14.69
2023-04-25T12:40:06.733Z,14.62
2023-04-25T12:41:06.724Z,14.13
2023-04-25T12:42:09.279Z,13.88
2023-04-25T12:43:06.692Z,13.58
2023-04-25T12:44:06.668Z,13.41
2023-04-25T12:45:05.213Z,13.40
2023-04-25T12:46:06.666Z,13.44
2023-04-25T12:47:06.721Z,13.54
2023-04-25T12:48:06.667Z,13.58
2023-04-25T12:49:17.741Z,13.62
2023-04-25T12:50:07.686Z,13.80
2023-04-25T12:51:06.573Z,14.09
2023-04-25T12:52:06.569Z,14.13
2023-04-25T12:53:05.103Z,13.94
2023-04-25T12:54:06.552Z,13.91
2023-04-25T12:55:06.537Z,13.79
2023-04-25T12:56:06.592Z,13.44
2023-04-25T12:57:06.489Z,13.44
2023-04-25T12:58:06.504Z,13.36
2023-04-25T12:59:06.486Z,13.30
2023-04-25T13:00:06.466Z,13.25
2023-04-25T13:01:05.022Z,13.25
2023-04-25T13:02:06.454Z,13.36
2023-04-25T13:03:05.376Z,13.24
2023-04-25T13:04:06.605Z,13.17
2023-04-25T13:05:06.404Z,13.17
2023-04-25T13:06:06.404Z,13.33
2023-04-25T13:07:05.284Z,13.56
2023-04-25T13:08:06.356Z,13.80
2023-04-25T13:09:04.872Z,13.94
2023-04-25T13:10:05.125Z,13.98